sensor_id;sensor_type;location;lat;lon;timestamp;P1;durP1;ratioP1;P2;durP2;ratioP2
77226;SDS011;66234;47.642;19.144;2023-11-19T00:01:34;15.23;;;10.40;;
77226;SDS011;66234;47.642;19.144;2023-11-19T00:04:37;18.35;;;10.02;;
77226;SDS011;66234;47.642;19.144;2023-11-19T00:07:43;18.52;;;10.82;;
77226;SDS011;66234;47.642;19.144;2023-11-19T00:10:45;15.52;;;10.40;;
77226;SDS011;66234;47.642;19.144;2023-11-19T00:13:48;18.23;;;9.50;;
77226;SDS011;66234;47.642;19.144;2023-11-19T00:16:51;15.80;;;10.17;;
77226;SDS011;66234;47.642;19.144;2023-11-19T00:19:53;18.63;;;9.93;;
77226;SDS011;66234;47.642;19.144;2023-11-19T00:22:56;19.05;;;10.82;;
77226;SDS011;66234;47.642;19.144;2023-11-19T00:25:58;17.25;;;9.27;;
77226;SDS011;66234;47.642;19.144;2023-11-19T00:29:01;13.07;;;8.98;;
77226;SDS011;66234;47.642;19.144;2023-11-19T00:32:04;17.38;;;9.05;;
77226;SDS011;66234;47.642;19.144;2023-11-19T00:35:08;17.98;;;9.30;;
77226;SDS011;66234;47.642;19.144;2023-11-19T00:38:17;15.83;;;8.53;;
77226;SDS011;66234;47.642;19.144;2023-11-19T00:41:19;15.63;;;8.70;;
77226;SDS011;66234;47.642;19.144;2023-11-19T00:44:22;17.08;;;8.52;;
77226;SDS011;66234;47.642;19.144;2023-11-19T00:47:25;17.52;;;9.43;;
77226;SDS011;66234;47.642;19.144;2023-11-19T00:50:28;17.75;;;10.18;;
77226;SDS011;66234;47.642;19.144;2023-11-19T00:53:31;15.70;;;9.57;;
77226;SDS011;66234;47.642;19.144;2023-11-19T00:56:36;14.38;;;8.77;;
77226;SDS011;66234;47.642;19.144;2023-11-19T00:59:42;16.47;;;9.50;;
77226;SDS011;66234;47.642;19.144;2023-11-19T01:02:45;14.65;;;9.23;;
77226;SDS011;66234;47.642;19.144;2023-11-19T01:05:48;15.50;;;8.25;;
77226;SDS011;66234;47.642;19.144;2023-11-19T01:08:51;16.03;;;8.90;;
77226;SDS011;66234;47.642;19.144;2023-11-19T01:11:55;17.73;;;8.32;;
77226;SDS011;66234;47.642;19.144;2023-11-19T01:14:57;18.42;;;10.23;;
77226;SDS011;66234;47.642;19.144;2023-11-19T01:18:00;14.35;;;9.27;;
77226;SDS011;66234;47.642;19.144;2023-11-19T01:21:07;17.23;;;10.60;;
77226;SDS011;66234;47.642;19.144;2023-11-19T01:24:11;14.75;;;8.40;;
77226;SDS011;66234;47.642;19.144;2023-11-19T01:27:15;14.57;;;9.50;;
77226;SDS011;66234;47.642;19.144;2023-11-19T01:30:18;17.30;;;10.53;;
77226;SDS011;66234;47.642;19.144;2023-11-19T01:33:24;18.80;;;11.07;;
77226;SDS011;66234;47.642;19.144;2023-11-19T01:36:27;22.10;;;11.27;;
77226;SDS011;66234;47.642;19.144;2023-11-19T01:39:30;22.35;;;12.40;;
77226;SDS011;66234;47.642;19.144;2023-11-19T01:42:36;18.58;;;10.88;;
77226;SDS011;66234;47.642;19.144;2023-11-19T01:45:42;22.88;;;12.20;;
77226;SDS011;66234;47.642;19.144;2023-11-19T01:48:45;24.13;;;13.63;;
77226;SDS011;66234;47.642;19.144;2023-11-19T01:51:48;24.43;;;14.53;;
77226;SDS011;66234;47.642;19.144;2023-11-19T01:54:52;27.65;;;13.88;;
77226;SDS011;66234;47.642;19.144;2023-11-19T01:57:57;27.10;;;15.02;;
77226;SDS011;66234;47.642;19.144;2023-11-19T02:01:04;29.27;;;14.68;;
77226;SDS011;66234;47.642;19.144;2023-11-19T02:04:08;28.88;;;15.02;;
77226;SDS011;66234;47.642;19.144;2023-11-19T02:07:12;28.95;;;14.27;;
77226;SDS011;66234;47.642;19.144;2023-11-19T02:10:16;29.25;;;15.35;;
77226;SDS011;66234;47.642;19.144;2023-11-19T02:13:21;28.57;;;13.97;;
77226;SDS011;66234;47.642;19.144;2023-11-19T02:16:24;26.92;;;14.45;;
77226;SDS011;66234;47.642;19.144;2023-11-19T02:19:26;26.27;;;14.05;;
77226;SDS011;66234;47.642;19.144;2023-11-19T02:22:29;26.07;;;14.00;;
77226;SDS011;66234;47.642;19.144;2023-11-19T02:25:32;25.92;;;12.80;;
77226;SDS011;66234;47.642;19.144;2023-11-19T02:28:36;21.98;;;13.68;;
77226;SDS011;66234;47.642;19.144;2023-11-19T02:31:39;22.73;;;13.73;;
77226;SDS011;66234;47.642;19.144;2023-11-19T02:34:42;27.00;;;13.23;;
77226;SDS011;66234;47.642;19.144;2023-11-19T02:37:44;23.40;;;13.18;;
77226;SDS011;66234;47.642;19.144;2023-11-19T02:40:47;22.55;;;13.73;;
77226;SDS011;66234;47.642;19.144;2023-11-19T02:43:51;23.37;;;13.67;;
77226;SDS011;66234;47.642;19.144;2023-11-19T02:46:53;22.40;;;14.55;;
77226;SDS011;66234;47.642;19.144;2023-11-19T02:49:56;34.88;;;19.23;;
77226;SDS011;66234;47.642;19.144;2023-11-19T02:52:59;27.38;;;15.48;;
77226;SDS011;66234;47.642;19.144;2023-11-19T02:56:03;28.27;;;17.45;;
77226;SDS011;66234;47.642;19.144;2023-11-19T02:59:40;27.48;;;16.48;;
77226;SDS011;66234;47.642;19.144;2023-11-19T03:02:45;30.92;;;15.38;;
77226;SDS011;66234;47.642;19.144;2023-11-19T03:06:00;26.20;;;16.67;;
77226;SDS011;66234;47.642;19.144;2023-11-19T03:09:06;27.90;;;17.17;;
77226;SDS011;66234;47.642;19.144;2023-11-19T03:12:12;29.23;;;16.80;;
77226;SDS011;66234;47.642;19.144;2023-11-19T03:15:15;30.27;;;16.42;;
77226;SDS011;66234;47.642;19.144;2023-11-19T03:18:18;32.13;;;17.53;;
77226;SDS011;66234;47.642;19.144;2023-11-19T03:21:27;36.35;;;19.02;;
77226;SDS011;66234;47.642;19.144;2023-11-19T03:24:32;42.15;;;19.20;;
77226;SDS011;66234;47.642;19.144;2023-11-19T03:27:35;21.73;;;14.17;;
77226;SDS011;66234;47.642;19.144;2023-11-19T03:30:38;18.75;;;12.98;;
77226;SDS011;66234;47.642;19.144;2023-11-19T03:33:40;21.30;;;12.77;;
77226;SDS011;66234;47.642;19.144;2023-11-19T03:36:43;18.73;;;12.25;;
77226;SDS011;66234;47.642;19.144;2023-11-19T03:39:46;23.27;;;12.40;;
77226;SDS011;66234;47.642;19.144;2023-11-19T03:42:48;23.02;;;12.57;;
77226;SDS011;66234;47.642;19.144;2023-11-19T03:45:51;21.38;;;13.20;;
77226;SDS011;66234;47.642;19.144;2023-11-19T03:48:53;18.10;;;12.30;;
77226;SDS011;66234;47.642;19.144;2023-11-19T03:51:56;25.45;;;12.63;;
77226;SDS011;66234;47.642;19.144;2023-11-19T03:54:59;25.23;;;13.10;;
77226;SDS011;66234;47.642;19.144;2023-11-19T03:58:02;19.63;;;11.10;;
77226;SDS011;66234;47.642;19.144;2023-11-19T04:01:10;24.20;;;11.90;;
77226;SDS011;66234;47.642;19.144;2023-11-19T04:04:14;17.75;;;10.57;;
77226;SDS011;66234;47.642;19.144;2023-11-19T04:07:17;21.83;;;10.95;;
77226;SDS011;66234;47.642;19.144;2023-11-19T04:10:19;19.38;;;10.35;;
77226;SDS011;66234;47.642;19.144;2023-11-19T04:13:23;14.85;;;10.20;;
77226;SDS011;66234;47.642;19.144;2023-11-19T04:16:27;16.95;;;9.70;;
77226;SDS011;66234;47.642;19.144;2023-11-19T04:19:33;19.05;;;9.88;;
77226;SDS011;66234;47.642;19.144;2023-11-19T04:22:35;16.07;;;10.00;;
77226;SDS011;66234;47.642;19.144;2023-11-19T04:25:38;18.60;;;9.77;;
77226;SDS011;66234;47.642;19.144;2023-11-19T04:28:41;14.50;;;8.77;;
77226;SDS011;66234;47.642;19.144;2023-11-19T04:31:44;15.35;;;9.95;;
77226;SDS011;66234;47.642;19.144;2023-11-19T04:34:48;19.52;;;10.77;;
77226;SDS011;66234;47.642;19.144;2023-11-19T04:37:50;19.20;;;11.15;;
77226;SDS011;66234;47.642;19.144;2023-11-19T04:40:53;17.92;;;10.60;;
77226;SDS011;66234;47.642;19.144;2023-11-19T04:43:55;17.10;;;10.13;;
77226;SDS011;66234;47.642;19.144;2023-11-19T04:46:58;16.70;;;9.77;;
77226;SDS011;66234;47.642;19.144;2023-11-19T04:50:01;17.83;;;10.73;;
77226;SDS011;66234;47.642;19.144;2023-11-19T04:53:04;16.27;;;10.40;;
77226;SDS011;66234;47.642;19.144;2023-11-19T04:56:07;18.60;;;11.17;;
77226;SDS011;66234;47.642;19.144;2023-11-19T04:59:13;18.27;;;10.05;;
77226;SDS011;66234;47.642;19.144;2023-11-19T05:02:15;16.85;;;10.50;;
77226;SDS011;66234;47.642;19.144;2023-11-19T05:05:18;18.23;;;11.03;;
77226;SDS011;66234;47.642;19.144;2023-11-19T05:08:21;16.13;;;9.82;;
77226;SDS011;66234;47.642;19.144;2023-11-19T05:11:23;22.45;;;10.40;;
77226;SDS011;66234;47.642;19.144;2023-11-19T05:14:26;21.00;;;11.07;;
77226;SDS011;66234;47.642;19.144;2023-11-19T05:17:28;19.27;;;11.13;;
77226;SDS011;66234;47.642;19.144;2023-11-19T05:20:31;20.85;;;10.82;;
77226;SDS011;66234;47.642;19.144;2023-11-19T05:23:34;20.27;;;11.63;;
77226;SDS011;66234;47.642;19.144;2023-11-19T05:26:36;17.92;;;10.88;;
77226;SDS011;66234;47.642;19.144;2023-11-19T05:29:40;18.27;;;10.83;;
77226;SDS011;66234;47.642;19.144;2023-11-19T05:32:44;23.00;;;11.40;;
77226;SDS011;66234;47.642;19.144;2023-11-19T05:35:46;20.08;;;11.32;;
77226;SDS011;66234;47.642;19.144;2023-11-19T05:38:49;20.00;;;11.07;;
77226;SDS011;66234;47.642;19.144;2023-11-19T05:41:51;17.98;;;11.48;;
77226;SDS011;66234;47.642;19.144;2023-11-19T05:44:54;20.85;;;10.73;;
77226;SDS011;66234;47.642;19.144;2023-11-19T05:47:57;17.77;;;10.63;;
77226;SDS011;66234;47.642;19.144;2023-11-19T05:50:59;20.30;;;12.63;;
77226;SDS011;66234;47.642;19.144;2023-11-19T05:54:02;19.83;;;12.32;;
77226;SDS011;66234;47.642;19.144;2023-11-19T05:57:06;19.55;;;11.15;;
77226;SDS011;66234;47.642;19.144;2023-11-19T06:00:11;17.80;;;11.20;;
77226;SDS011;66234;47.642;19.144;2023-11-19T06:03:15;22.27;;;13.30;;
77226;SDS011;66234;47.642;19.144;2023-11-19T06:06:18;19.58;;;11.18;;
77226;SDS011;66234;47.642;19.144;2023-11-19T06:09:21;22.67;;;12.10;;
77226;SDS011;66234;47.642;19.144;2023-11-19T06:12:25;19.33;;;11.30;;
77226;SDS011;66234;47.642;19.144;2023-11-19T06:15:29;22.87;;;11.90;;
77226;SDS011;66234;47.642;19.144;2023-11-19T06:18:32;26.15;;;12.77;;
77226;SDS011;66234;47.642;19.144;2023-11-19T06:21:36;22.70;;;12.63;;
77226;SDS011;66234;47.642;19.144;2023-11-19T06:24:39;21.98;;;13.52;;
77226;SDS011;66234;47.642;19.144;2023-11-19T06:27:43;22.53;;;12.43;;
77226;SDS011;66234;47.642;19.144;2023-11-19T06:30:45;20.80;;;11.65;;
77226;SDS011;66234;47.642;19.144;2023-11-19T06:33:50;22.20;;;11.27;;
77226;SDS011;66234;47.642;19.144;2023-11-19T06:36:53;19.80;;;12.80;;
77226;SDS011;66234;47.642;19.144;2023-11-19T06:39:56;21.55;;;12.05;;
77226;SDS011;66234;47.642;19.144;2023-11-19T06:42:58;24.88;;;12.80;;
77226;SDS011;66234;47.642;19.144;2023-11-19T06:46:01;29.90;;;16.65;;
77226;SDS011;66234;47.642;19.144;2023-11-19T06:49:04;36.23;;;19.07;;
77226;SDS011;66234;47.642;19.144;2023-11-19T06:52:06;36.65;;;15.80;;
77226;SDS011;66234;47.642;19.144;2023-11-19T06:55:09;32.17;;;15.10;;
77226;SDS011;66234;47.642;19.144;2023-11-19T06:58:12;26.60;;;14.55;;
77226;SDS011;66234;47.642;19.144;2023-11-19T07:01:15;25.40;;;13.07;;
77226;SDS011;66234;47.642;19.144;2023-11-19T07:04:18;21.75;;;11.35;;
77226;SDS011;66234;47.642;19.144;2023-11-19T07:07:20;18.52;;;11.60;;
77226;SDS011;66234;47.642;19.144;2023-11-19T07:10:23;27.13;;;12.65;;
77226;SDS011;66234;47.642;19.144;2023-11-19T07:13:26;27.33;;;13.30;;
77226;SDS011;66234;47.642;19.144;2023-11-19T07:16:30;28.37;;;14.17;;
77226;SDS011;66234;47.642;19.144;2023-11-19T07:19:33;30.48;;;12.52;;
77226;SDS011;66234;47.642;19.144;2023-11-19T07:22:37;20.08;;;11.20;;
77226;SDS011;66234;47.642;19.144;2023-11-19T07:25:40;17.50;;;9.53;;
77226;SDS011;66234;47.642;19.144;2023-11-19T07:28:43;17.93;;;9.60;;
77226;SDS011;66234;47.642;19.144;2023-11-19T07:31:48;16.98;;;9.85;;
77226;SDS011;66234;47.642;19.144;2023-11-19T07:34:51;16.45;;;10.35;;
77226;SDS011;66234;47.642;19.144;2023-11-19T07:37:53;17.60;;;9.70;;
77226;SDS011;66234;47.642;19.144;2023-11-19T07:40:56;14.43;;;8.13;;
77226;SDS011;66234;47.642;19.144;2023-11-19T07:43:59;14.75;;;9.18;;
77226;SDS011;66234;47.642;19.144;2023-11-19T07:47:02;17.65;;;9.40;;
77226;SDS011;66234;47.642;19.144;2023-11-19T07:50:05;15.90;;;9.65;;
77226;SDS011;66234;47.642;19.144;2023-11-19T07:53:08;19.80;;;9.70;;
77226;SDS011;66234;47.642;19.144;2023-11-19T07:56:11;18.67;;;9.48;;
77226;SDS011;66234;47.642;19.144;2023-11-19T07:59:13;17.85;;;11.02;;
77226;SDS011;66234;47.642;19.144;2023-11-19T08:02:16;17.85;;;10.20;;
77226;SDS011;66234;47.642;19.144;2023-11-19T08:05:19;21.57;;;10.73;;
77226;SDS011;66234;47.642;19.144;2023-11-19T08:08:21;17.83;;;10.13;;
77226;SDS011;66234;47.642;19.144;2023-11-19T08:11:24;19.25;;;11.30;;
77226;SDS011;66234;47.642;19.144;2023-11-19T08:14:26;21.20;;;11.20;;
77226;SDS011;66234;47.642;19.144;2023-11-19T08:17:30;22.48;;;10.82;;
77226;SDS011;66234;47.642;19.144;2023-11-19T08:20:33;18.77;;;10.30;;
77226;SDS011;66234;47.642;19.144;2023-11-19T08:23:36;20.48;;;11.13;;
77226;SDS011;66234;47.642;19.144;2023-11-19T08:26:39;22.10;;;10.77;;
77226;SDS011;66234;47.642;19.144;2023-11-19T08:29:42;18.70;;;9.93;;
77226;SDS011;66234;47.642;19.144;2023-11-19T08:32:44;18.37;;;10.80;;
77226;SDS011;66234;47.642;19.144;2023-11-19T08:35:47;27.17;;;11.87;;
77226;SDS011;66234;47.642;19.144;2023-11-19T08:38:49;24.67;;;12.73;;
77226;SDS011;66234;47.642;19.144;2023-11-19T08:41:54;24.63;;;11.57;;
77226;SDS011;66234;47.642;19.144;2023-11-19T08:44:57;23.02;;;11.90;;
77226;SDS011;66234;47.642;19.144;2023-11-19T08:48:00;22.97;;;11.60;;
77226;SDS011;66234;47.642;19.144;2023-11-19T08:51:03;16.30;;;9.30;;
77226;SDS011;66234;47.642;19.144;2023-11-19T08:54:06;17.60;;;10.45;;
77226;SDS011;66234;47.642;19.144;2023-11-19T08:57:09;20.40;;;9.82;;
77226;SDS011;66234;47.642;19.144;2023-11-19T09:00:12;20.30;;;11.32;;
77226;SDS011;66234;47.642;19.144;2023-11-19T09:03:16;21.40;;;10.30;;
77226;SDS011;66234;47.642;19.144;2023-11-19T09:06:19;15.43;;;9.10;;
77226;SDS011;66234;47.642;19.144;2023-11-19T09:09:22;17.58;;;9.50;;
77226;SDS011;66234;47.642;19.144;2023-11-19T09:12:24;19.35;;;9.63;;
77226;SDS011;66234;47.642;19.144;2023-11-19T09:15:27;16.98;;;9.93;;
77226;SDS011;66234;47.642;19.144;2023-11-19T09:18:30;16.93;;;9.17;;
77226;SDS011;66234;47.642;19.144;2023-11-19T09:21:34;18.58;;;9.32;;
77226;SDS011;66234;47.642;19.144;2023-11-19T09:24:39;16.77;;;9.48;;
77226;SDS011;66234;47.642;19.144;2023-11-19T09:27:45;22.25;;;10.82;;
77226;SDS011;66234;47.642;19.144;2023-11-19T09:30:47;25.83;;;12.15;;
77226;SDS011;66234;47.642;19.144;2023-11-19T09:33:50;21.23;;;11.03;;
77226;SDS011;66234;47.642;19.144;2023-11-19T09:36:52;21.73;;;9.27;;
77226;SDS011;66234;47.642;19.144;2023-11-19T09:39:55;23.55;;;12.40;;
77226;SDS011;66234;47.642;19.144;2023-11-19T09:42:58;20.42;;;11.15;;
77226;SDS011;66234;47.642;19.144;2023-11-19T09:46:04;23.35;;;11.13;;
77226;SDS011;66234;47.642;19.144;2023-11-19T09:49:08;21.20;;;10.73;;
77226;SDS011;66234;47.642;19.144;2023-11-19T09:52:13;22.23;;;11.40;;
77226;SDS011;66234;47.642;19.144;2023-11-19T09:55:16;18.50;;;11.02;;
77226;SDS011;66234;47.642;19.144;2023-11-19T09:58:19;19.05;;;11.02;;
77226;SDS011;66234;47.642;19.144;2023-11-19T10:01:21;20.52;;;11.55;;
77226;SDS011;66234;47.642;19.144;2023-11-19T10:04:30;18.77;;;11.17;;
77226;SDS011;66234;47.642;19.144;2023-11-19T10:07:38;23.23;;;11.77;;
77226;SDS011;66234;47.642;19.144;2023-11-19T10:10:40;23.80;;;12.30;;
77226;SDS011;66234;47.642;19.144;2023-11-19T10:13:43;20.58;;;12.15;;
77226;SDS011;66234;47.642;19.144;2023-11-19T10:16:46;22.48;;;12.35;;
77226;SDS011;66234;47.642;19.144;2023-11-19T10:19:49;26.30;;;12.03;;
77226;SDS011;66234;47.642;19.144;2023-11-19T10:22:55;20.88;;;11.55;;
77226;SDS011;66234;47.642;19.144;2023-11-19T10:26:04;21.80;;;12.32;;
77226;SDS011;66234;47.642;19.144;2023-11-19T10:29:12;20.45;;;9.82;;
77226;SDS011;66234;47.642;19.144;2023-11-19T10:32:17;19.05;;;10.23;;
77226;SDS011;66234;47.642;19.144;2023-11-19T10:35:28;19.90;;;9.87;;
77226;SDS011;66234;47.642;19.144;2023-11-19T10:38:30;16.88;;;8.98;;
77226;SDS011;66234;47.642;19.144;2023-11-19T10:41:33;19.13;;;9.98;;
77226;SDS011;66234;47.642;19.144;2023-11-19T10:44:36;20.30;;;10.00;;
77226;SDS011;66234;47.642;19.144;2023-11-19T10:47:40;18.27;;;9.73;;
77226;SDS011;66234;47.642;19.144;2023-11-19T10:50:45;19.87;;;11.03;;
77226;SDS011;66234;47.642;19.144;2023-11-19T10:53:52;24.98;;;12.88;;
77226;SDS011;66234;47.642;19.144;2023-11-19T10:56:59;24.65;;;13.25;;
77226;SDS011;66234;47.642;19.144;2023-11-19T11:00:04;21.02;;;10.73;;
77226;SDS011;66234;47.642;19.144;2023-11-19T11:03:18;24.27;;;13.65;;
77226;SDS011;66234;47.642;19.144;2023-11-19T11:06:22;18.83;;;10.60;;
77226;SDS011;66234;47.642;19.144;2023-11-19T11:09:26;20.38;;;10.82;;
77226;SDS011;66234;47.642;19.144;2023-11-19T11:12:30;22.15;;;10.82;;
77226;SDS011;66234;47.642;19.144;2023-11-19T11:15:38;14.90;;;9.00;;
77226;SDS011;66234;47.642;19.144;2023-11-19T11:18:45;24.67;;;11.93;;
77226;SDS011;66234;47.642;19.144;2023-11-19T11:21:52;22.20;;;12.37;;
77226;SDS011;66234;47.642;19.144;2023-11-19T11:28:26;18.92;;;9.77;;
77226;SDS011;66234;47.642;19.144;2023-11-19T11:38:53;16.23;;;9.93;;
77226;SDS011;66234;47.642;19.144;2023-11-19T11:45:36;15.18;;;10.35;;
77226;SDS011;66234;47.642;19.144;2023-11-19T11:48:43;15.23;;;9.38;;
77226;SDS011;66234;47.642;19.144;2023-11-19T11:55:07;14.27;;;8.73;;
77226;SDS011;66234;47.642;19.144;2023-11-19T11:58:12;20.92;;;10.65;;
77226;SDS011;66234;47.642;19.144;2023-11-19T12:01:16;14.70;;;9.27;;
77226;SDS011;66234;47.642;19.144;2023-11-19T12:04:25;19.38;;;9.30;;
77226;SDS011;66234;47.642;19.144;2023-11-19T12:07:29;15.90;;;7.60;;
77226;SDS011;66234;47.642;19.144;2023-11-19T12:10:33;13.60;;;7.70;;
77226;SDS011;66234;47.642;19.144;2023-11-19T12:13:45;11.75;;;7.00;;
77226;SDS011;66234;47.642;19.144;2023-11-19T12:17:04;17.05;;;8.60;;
77226;SDS011;66234;47.642;19.144;2023-11-19T12:20:35;15.20;;;8.52;;
77226;SDS011;66234;47.642;19.144;2023-11-19T12:23:45;18.92;;;9.27;;
77226;SDS011;66234;47.642;19.144;2023-11-19T12:26:51;16.67;;;8.83;;
77226;SDS011;66234;47.642;19.144;2023-11-19T12:29:56;11.95;;;7.07;;
77226;SDS011;66234;47.642;19.144;2023-11-19T12:32:59;13.43;;;7.55;;
77226;SDS011;66234;47.642;19.144;2023-11-19T12:36:02;18.63;;;9.52;;
77226;SDS011;66234;47.642;19.144;2023-11-19T12:39:07;12.90;;;8.70;;
77226;SDS011;66234;47.642;19.144;2023-11-19T12:42:10;16.00;;;9.33;;
77226;SDS011;66234;47.642;19.144;2023-11-19T12:45:14;13.27;;;6.47;;
77226;SDS011;66234;47.642;19.144;2023-11-19T12:48:18;15.85;;;8.73;;
77226;SDS011;66234;47.642;19.144;2023-11-19T12:51:21;14.73;;;7.85;;
77226;SDS011;66234;47.642;19.144;2023-11-19T12:54:35;18.13;;;10.15;;
77226;SDS011;66234;47.642;19.144;2023-11-19T12:57:39;17.37;;;9.83;;
77226;SDS011;66234;47.642;19.144;2023-11-19T13:00:43;15.55;;;9.65;;
77226;SDS011;66234;47.642;19.144;2023-11-19T13:03:46;15.75;;;8.20;;
77226;SDS011;66234;47.642;19.144;2023-11-19T13:06:51;15.68;;;7.45;;
77226;SDS011;66234;47.642;19.144;2023-11-19T13:10:02;16.05;;;9.57;;
77226;SDS011;66234;47.642;19.144;2023-11-19T13:13:06;17.50;;;9.70;;
77226;SDS011;66234;47.642;19.144;2023-11-19T13:16:12;14.55;;;9.13;;
77226;SDS011;66234;47.642;19.144;2023-11-19T13:19:15;16.52;;;9.20;;
77226;SDS011;66234;47.642;19.144;2023-11-19T13:22:21;17.40;;;8.70;;
77226;SDS011;66234;47.642;19.144;2023-11-19T13:25:24;19.55;;;9.73;;
77226;SDS011;66234;47.642;19.144;2023-11-19T13:28:27;17.00;;;9.10;;
77226;SDS011;66234;47.642;19.144;2023-11-19T13:31:31;20.48;;;10.07;;
77226;SDS011;66234;47.642;19.144;2023-11-19T13:34:33;17.42;;;9.95;;
77226;SDS011;66234;47.642;19.144;2023-11-19T13:37:36;19.55;;;9.50;;
77226;SDS011;66234;47.642;19.144;2023-11-19T13:40:38;18.45;;;9.88;;
77226;SDS011;66234;47.642;19.144;2023-11-19T13:43:41;18.57;;;9.60;;
77226;SDS011;66234;47.642;19.144;2023-11-19T13:46:44;19.05;;;10.95;;
77226;SDS011;66234;47.642;19.144;2023-11-19T13:49:48;19.17;;;10.27;;
77226;SDS011;66234;47.642;19.144;2023-11-19T13:52:50;15.32;;;8.32;;
77226;SDS011;66234;47.642;19.144;2023-11-19T13:55:53;16.98;;;10.30;;
77226;SDS011;66234;47.642;19.144;2023-11-19T13:58:56;15.57;;;8.73;;
77226;SDS011;66234;47.642;19.144;2023-11-19T14:01:58;17.92;;;10.10;;
77226;SDS011;66234;47.642;19.144;2023-11-19T14:05:01;19.00;;;10.68;;
77226;SDS011;66234;47.642;19.144;2023-11-19T14:08:05;17.05;;;9.80;;
77226;SDS011;66234;47.642;19.144;2023-11-19T14:11:26;14.32;;;9.25;;
77226;SDS011;66234;47.642;19.144;2023-11-19T14:14:29;14.83;;;8.50;;
77226;SDS011;66234;47.642;19.144;2023-11-19T14:17:31;15.70;;;8.57;;
77226;SDS011;66234;47.642;19.144;2023-11-19T14:20:34;17.23;;;9.40;;
77226;SDS011;66234;47.642;19.144;2023-11-19T14:23:38;17.55;;;9.35;;
77226;SDS011;66234;47.642;19.144;2023-11-19T14:26:41;18.73;;;10.18;;
77226;SDS011;66234;47.642;19.144;2023-11-19T14:29:43;19.23;;;10.73;;
77226;SDS011;66234;47.642;19.144;2023-11-19T14:32:49;18.55;;;10.27;;
77226;SDS011;66234;47.642;19.144;2023-11-19T14:35:52;18.52;;;11.25;;
77226;SDS011;66234;47.642;19.144;2023-11-19T14:38:54;15.52;;;10.23;;
77226;SDS011;66234;47.642;19.144;2023-11-19T14:41:57;14.77;;;9.18;;
77226;SDS011;66234;47.642;19.144;2023-11-19T14:45:03;14.93;;;9.33;;
77226;SDS011;66234;47.642;19.144;2023-11-19T14:48:05;21.30;;;10.13;;
77226;SDS011;66234;47.642;19.144;2023-11-19T14:51:08;23.52;;;11.07;;
77226;SDS011;66234;47.642;19.144;2023-11-19T14:54:11;17.70;;;11.02;;
77226;SDS011;66234;47.642;19.144;2023-11-19T14:57:13;17.55;;;10.60;;
77226;SDS011;66234;47.642;19.144;2023-11-19T15:00:16;21.13;;;10.33;;
77226;SDS011;66234;47.642;19.144;2023-11-19T15:03:19;17.58;;;11.90;;
77226;SDS011;66234;47.642;19.144;2023-11-19T15:06:25;17.13;;;12.15;;
77226;SDS011;66234;47.642;19.144;2023-11-19T15:09:32;23.75;;;12.75;;
77226;SDS011;66234;47.642;19.144;2023-11-19T15:12:36;22.75;;;12.20;;
77226;SDS011;66234;47.642;19.144;2023-11-19T15:15:41;21.03;;;12.53;;
77226;SDS011;66234;47.642;19.144;2023-11-19T15:18:44;21.60;;;13.63;;
77226;SDS011;66234;47.642;19.144;2023-11-19T15:21:47;21.60;;;12.23;;
77226;SDS011;66234;47.642;19.144;2023-11-19T15:24:50;19.63;;;12.25;;
77226;SDS011;66234;47.642;19.144;2023-11-19T15:27:52;17.85;;;10.63;;
77226;SDS011;66234;47.642;19.144;2023-11-19T15:30:55;20.27;;;11.70;;
77226;SDS011;66234;47.642;19.144;2023-11-19T15:33:58;19.30;;;10.63;;
77226;SDS011;66234;47.642;19.144;2023-11-19T15:37:00;18.42;;;11.27;;
77226;SDS011;66234;47.642;19.144;2023-11-19T15:40:03;24.08;;;12.35;;
77226;SDS011;66234;47.642;19.144;2023-11-19T15:43:10;23.65;;;12.48;;
77226;SDS011;66234;47.642;19.144;2023-11-19T15:46:12;25.00;;;13.47;;
77226;SDS011;66234;47.642;19.144;2023-11-19T15:49:15;21.95;;;11.43;;
77226;SDS011;66234;47.642;19.144;2023-11-19T15:52:18;20.80;;;11.43;;
77226;SDS011;66234;47.642;19.144;2023-11-19T15:55:21;16.95;;;10.88;;
77226;SDS011;66234;47.642;19.144;2023-11-19T15:58:24;19.98;;;10.90;;
77226;SDS011;66234;47.642;19.144;2023-11-19T16:01:27;20.43;;;11.97;;
77226;SDS011;66234;47.642;19.144;2023-11-19T16:04:31;18.25;;;10.27;;
77226;SDS011;66234;47.642;19.144;2023-11-19T16:07:34;18.63;;;11.82;;
77226;SDS011;66234;47.642;19.144;2023-11-19T16:10:37;17.38;;;10.38;;
77226;SDS011;66234;47.642;19.144;2023-11-19T16:13:48;16.15;;;11.13;;
77226;SDS011;66234;47.642;19.144;2023-11-19T16:16:51;15.20;;;11.47;;
77226;SDS011;66234;47.642;19.144;2023-11-19T16:19:55;18.60;;;12.43;;
77226;SDS011;66234;47.642;19.144;2023-11-19T16:22:58;18.48;;;12.50;;
77226;SDS011;66234;47.642;19.144;2023-11-19T16:26:02;18.25;;;12.05;;
77226;SDS011;66234;47.642;19.144;2023-11-19T16:29:05;18.65;;;14.00;;
77226;SDS011;66234;47.642;19.144;2023-11-19T16:32:08;18.63;;;12.77;;
77226;SDS011;66234;47.642;19.144;2023-11-19T16:35:13;21.17;;;15.05;;
77226;SDS011;66234;47.642;19.144;2023-11-19T16:38:15;19.70;;;13.93;;
77226;SDS011;66234;47.642;19.144;2023-11-19T16:41:18;27.13;;;15.55;;
77226;SDS011;66234;47.642;19.144;2023-11-19T16:44:37;22.98;;;16.13;;
77226;SDS011;66234;47.642;19.144;2023-11-19T16:47:39;21.20;;;14.87;;
77226;SDS011;66234;47.642;19.144;2023-11-19T16:50:43;24.58;;;16.08;;
77226;SDS011;66234;47.642;19.144;2023-11-19T16:54:04;18.95;;;14.88;;
77226;SDS011;66234;47.642;19.144;2023-11-19T16:57:07;38.22;;;20.92;;
77226;SDS011;66234;47.642;19.144;2023-11-19T17:00:10;48.08;;;26.33;;
77226;SDS011;66234;47.642;19.144;2023-11-19T17:03:13;47.17;;;26.77;;
77226;SDS011;66234;47.642;19.144;2023-11-19T17:06:16;39.03;;;22.90;;
77226;SDS011;66234;47.642;19.144;2023-11-19T17:09:19;41.05;;;24.33;;
77226;SDS011;66234;47.642;19.144;2023-11-19T17:12:21;40.08;;;22.77;;
77226;SDS011;66234;47.642;19.144;2023-11-19T17:15:28;32.63;;;19.73;;
77226;SDS011;66234;47.642;19.144;2023-11-19T17:18:31;37.97;;;20.30;;
77226;SDS011;66234;47.642;19.144;2023-11-19T17:21:33;33.95;;;20.92;;
77226;SDS011;66234;47.642;19.144;2023-11-19T17:24:36;33.75;;;21.90;;
77226;SDS011;66234;47.642;19.144;2023-11-19T17:27:39;33.47;;;19.73;;
77226;SDS011;66234;47.642;19.144;2023-11-19T17:30:42;29.65;;;20.95;;
77226;SDS011;66234;47.642;19.144;2023-11-19T17:33:45;27.90;;;17.77;;
77226;SDS011;66234;47.642;19.144;2023-11-19T17:36:48;25.63;;;17.35;;
77226;SDS011;66234;47.642;19.144;2023-11-19T17:39:50;27.10;;;22.27;;
77226;SDS011;66234;47.642;19.144;2023-11-19T17:42:54;23.52;;;18.73;;
77226;SDS011;66234;47.642;19.144;2023-11-19T17:45:58;23.40;;;20.60;;
77226;SDS011;66234;47.642;19.144;2023-11-19T17:49:03;23.47;;;20.97;;
77226;SDS011;66234;47.642;19.144;2023-11-19T17:52:06;21.00;;;18.58;;
77226;SDS011;66234;47.642;19.144;2023-11-19T17:55:12;22.67;;;18.30;;
77226;SDS011;66234;47.642;19.144;2023-11-19T17:58:15;22.90;;;18.83;;
77226;SDS011;66234;47.642;19.144;2023-11-19T18:01:22;24.10;;;20.95;;
77226;SDS011;66234;47.642;19.144;2023-11-19T18:04:25;32.83;;;22.20;;